sensor_id;sensor_type;location;lat;lon;timestamp;P1;durP1;ratioP1;P2;durP2;ratioP2
1336;SDS011;662;48.814;9.318;2023-04-24T00:01:56;1.20;;;1.10;;
1336;SDS011;662;48.814;9.318;2023-04-24T00:04:23;1.50;;;1.07;;
1336;SDS011;662;48.814;9.318;2023-04-24T00:06:51;1.30;;;1.20;;
1336;SDS011;662;48.814;9.318;2023-04-24T00:09:19;1.20;;;1.10;;
1336;SDS011;662;48.814;9.318;2023-04-24T00:11:44;2.63;;;1.10;;
1336;SDS011;662;48.814;9.318;2023-04-24T00:14:10;1.23;;;1.10;;
1336;SDS011;662;48.814;9.318;2023-04-24T00:16:38;1.67;;;1.13;;
1336;SDS011;662;48.814;9.318;2023-04-24T00:19:03;2.13;;;1.40;;
1336;SDS011;662;48.814;9.318;2023-04-24T00:21:30;2.83;;;1.13;;
1336;SDS011;662;48.814;9.318;2023-04-24T00:23:57;3.40;;;1.10;;
1336;SDS011;662;48.814;9.318;2023-04-24T00:26:23;1.37;;;1.20;;
1336;SDS011;662;48.814;9.318;2023-04-24T00:28:49;2.57;;;1.13;;
1336;SDS011;662;48.814;9.318;2023-04-24T00:31:14;1.20;;;1.07;;
1336;SDS011;662;48.814;9.318;2023-04-24T00:33:40;2.20;;;1.20;;
1336;SDS011;662;48.814;9.318;2023-04-24T00:36:06;1.40;;;0.90;;
1336;SDS011;662;48.814;9.318;2023-04-24T00:38:32;2.30;;;0.83;;
1336;SDS011;662;48.814;9.318;2023-04-24T00:40:58;1.60;;;1.10;;
1336;SDS011;662;48.814;9.318;2023-04-24T00:43:24;3.40;;;0.90;;
1336;SDS011;662;48.814;9.318;2023-04-24T00:45:49;2.03;;;1.30;;
1336;SDS011;662;48.814;9.318;2023-04-24T00:48:15;3.70;;;1.30;;
1336;SDS011;662;48.814;9.318;2023-04-24T00:50:41;1.43;;;0.87;;
1336;SDS011;662;48.814;9.318;2023-04-24T00:53:07;1.27;;;0.80;;
1336;SDS011;662;48.814;9.318;2023-04-24T00:55:33;1.90;;;1.00;;
1336;SDS011;662;48.814;9.318;2023-04-24T00:57:59;3.17;;;0.90;;
1336;SDS011;662;48.814;9.318;2023-04-24T01:00:24;2.80;;;1.00;;
1336;SDS011;662;48.814;9.318;2023-04-24T01:02:51;1.20;;;1.10;;
1336;SDS011;662;48.814;9.318;2023-04-24T01:05:17;1.63;;;1.00;;
1336;SDS011;662;48.814;9.318;2023-04-24T01:07:44;1.70;;;1.07;;
1336;SDS011;662;48.814;9.318;2023-04-24T01:10:13;3.33;;;1.30;;
1336;SDS011;662;48.814;9.318;2023-04-24T01:12:42;1.30;;;1.20;;
1336;SDS011;662;48.814;9.318;2023-04-24T01:15:08;2.10;;;0.90;;
1336;SDS011;662;48.814;9.318;2023-04-24T01:17:34;1.30;;;0.90;;
1336;SDS011;662;48.814;9.318;2023-04-24T01:20:00;1.53;;;1.00;;
1336;SDS011;662;48.814;9.318;2023-04-24T01:22:29;1.87;;;1.00;;
1336;SDS011;662;48.814;9.318;2023-04-24T01:24:54;1.20;;;0.93;;
1336;SDS011;662;48.814;9.318;2023-04-24T01:27:20;2.67;;;1.10;;
1336;SDS011;662;48.814;9.318;2023-04-24T01:29:46;1.53;;;1.07;;
1336;SDS011;662;48.814;9.318;2023-04-24T01:32:14;1.63;;;1.00;;
1336;SDS011;662;48.814;9.318;2023-04-24T01:34:40;1.43;;;1.00;;
1336;SDS011;662;48.814;9.318;2023-04-24T01:37:06;1.03;;;0.87;;
1336;SDS011;662;48.814;9.318;2023-04-24T01:39:31;1.63;;;1.00;;
1336;SDS011;662;48.814;9.318;2023-04-24T01:41:58;1.10;;;1.03;;
1336;SDS011;662;48.814;9.318;2023-04-24T01:44:25;1.83;;;1.03;;
1336;SDS011;662;48.814;9.318;2023-04-24T01:46:51;1.50;;;1.10;;
1336;SDS011;662;48.814;9.318;2023-04-24T01:49:19;0.90;;;0.80;;
1336;SDS011;662;48.814;9.318;2023-04-24T01:51:45;1.47;;;1.00;;
1336;SDS011;662;48.814;9.318;2023-04-24T01:54:11;2.60;;;1.10;;
1336;SDS011;662;48.814;9.318;2023-04-24T01:56:37;1.33;;;0.90;;
1336;SDS011;662;48.814;9.318;2023-04-24T01:59:07;1.30;;;1.03;;
1336;SDS011;662;48.814;9.318;2023-04-24T02:01:36;2.23;;;1.20;;
1336;SDS011;662;48.814;9.318;2023-04-24T02:04:02;0.90;;;0.90;;
1336;SDS011;662;48.814;9.318;2023-04-24T02:06:28;1.97;;;1.07;;
1336;SDS011;662;48.814;9.318;2023-04-24T02:08:56;1.70;;;0.90;;
1336;SDS011;662;48.814;9.318;2023-04-24T02:11:22;1.20;;;1.03;;
1336;SDS011;662;48.814;9.318;2023-04-24T02:13:48;1.10;;;1.00;;
1336;SDS011;662;48.814;9.318;2023-04-24T02:16:14;3.00;;;1.40;;
1336;SDS011;662;48.814;9.318;2023-04-24T02:18:39;2.93;;;1.10;;
1336;SDS011;662;48.814;9.318;2023-04-24T02:21:05;1.27;;;1.17;;
1336;SDS011;662;48.814;9.318;2023-04-24T02:23:30;0.90;;;0.90;;
1336;SDS011;662;48.814;9.318;2023-04-24T02:25:56;2.50;;;1.20;;
1336;SDS011;662;48.814;9.318;2023-04-24T02:28:21;0.73;;;0.70;;
1336;SDS011;662;48.814;9.318;2023-04-24T02:30:47;1.33;;;0.90;;
1336;SDS011;662;48.814;9.318;2023-04-24T02:33:13;1.37;;;0.87;;
1336;SDS011;662;48.814;9.318;2023-04-24T02:35:38;1.20;;;1.10;;
1336;SDS011;662;48.814;9.318;2023-04-24T02:38:04;1.87;;;1.53;;
1336;SDS011;662;48.814;9.318;2023-04-24T02:40:29;2.60;;;0.90;;
1336;SDS011;662;48.814;9.318;2023-04-24T02:42:55;1.70;;;1.20;;
1336;SDS011;662;48.814;9.318;2023-04-24T02:45:21;2.03;;;1.40;;
1336;SDS011;662;48.814;9.318;2023-04-24T02:47:46;1.70;;;1.30;;
1336;SDS011;662;48.814;9.318;2023-04-24T02:50:12;0.93;;;0.93;;
1336;SDS011;662;48.814;9.318;2023-04-24T02:52:38;1.30;;;1.20;;
1336;SDS011;662;48.814;9.318;2023-04-24T02:55:03;1.43;;;1.10;;
1336;SDS011;662;48.814;9.318;2023-04-24T02:57:29;1.00;;;0.90;;
1336;SDS011;662;48.814;9.318;2023-04-24T02:59:55;1.70;;;1.00;;
1336;SDS011;662;48.814;9.318;2023-04-24T03:02:21;3.43;;;1.23;;
1336;SDS011;662;48.814;9.318;2023-04-24T03:04:46;2.40;;;1.17;;
1336;SDS011;662;48.814;9.318;2023-04-24T03:07:13;1.23;;;0.90;;
1336;SDS011;662;48.814;9.318;2023-04-24T03:09:39;3.60;;;1.10;;
1336;SDS011;662;48.814;9.318;2023-04-24T03:12:05;0.80;;;0.80;;
1336;SDS011;662;48.814;9.318;2023-04-24T03:14:31;1.73;;;1.40;;
1336;SDS011;662;48.814;9.318;2023-04-24T03:17:00;1.30;;;1.20;;
1336;SDS011;662;48.814;9.318;2023-04-24T03:19:25;1.50;;;1.03;;
1336;SDS011;662;48.814;9.318;2023-04-24T03:21:51;1.27;;;1.10;;
1336;SDS011;662;48.814;9.318;2023-04-24T03:24:16;3.90;;;1.43;;
1336;SDS011;662;48.814;9.318;2023-04-24T03:26:42;1.10;;;1.10;;
1336;SDS011;662;48.814;9.318;2023-04-24T03:29:08;1.33;;;1.23;;
1336;SDS011;662;48.814;9.318;2023-04-24T03:31:33;2.43;;;1.13;;
1336;SDS011;662;48.814;9.318;2023-04-24T03:33:59;1.27;;;1.10;;
1336;SDS011;662;48.814;9.318;2023-04-24T03:36:24;1.47;;;1.10;;
1336;SDS011;662;48.814;9.318;2023-04-24T03:38:51;0.90;;;0.90;;
1336;SDS011;662;48.814;9.318;2023-04-24T03:41:16;1.53;;;1.10;;
1336;SDS011;662;48.814;9.318;2023-04-24T03:43:42;2.30;;;1.20;;
1336;SDS011;662;48.814;9.318;2023-04-24T03:46:08;1.63;;;1.10;;
1336;SDS011;662;48.814;9.318;2023-04-24T03:48:34;1.80;;;1.10;;
1336;SDS011;662;48.814;9.318;2023-04-24T03:51:00;5.10;;;1.50;;
1336;SDS011;662;48.814;9.318;2023-04-24T03:53:26;2.40;;;1.07;;
1336;SDS011;662;48.814;9.318;2023-04-24T03:55:52;1.17;;;1.10;;
1336;SDS011;662;48.814;9.318;2023-04-24T03:58:18;1.83;;;0.93;;
1336;SDS011;662;48.814;9.318;2023-04-24T04:00:44;2.97;;;1.10;;
1336;SDS011;662;48.814;9.318;2023-04-24T04:03:11;1.80;;;1.20;;
1336;SDS011;662;48.814;9.318;2023-04-24T04:05:38;1.10;;;1.00;;
1336;SDS011;662;48.814;9.318;2023-04-24T04:08:04;2.17;;;1.10;;
1336;SDS011;662;48.814;9.318;2023-04-24T04:10:30;1.63;;;1.00;;
1336;SDS011;662;48.814;9.318;2023-04-24T04:12:55;2.10;;;1.07;;
1336;SDS011;662;48.814;9.318;2023-04-24T04:15:21;2.50;;;1.10;;
1336;SDS011;662;48.814;9.318;2023-04-24T04:17:47;1.77;;;1.20;;
1336;SDS011;662;48.814;9.318;2023-04-24T04:20:12;1.17;;;1.07;;
1336;SDS011;662;48.814;9.318;2023-04-24T04:22:38;2.50;;;1.37;;
1336;SDS011;662;48.814;9.318;2023-04-24T04:25:04;1.70;;;1.23;;
1336;SDS011;662;48.814;9.318;2023-04-24T04:27:30;2.10;;;1.00;;
1336;SDS011;662;48.814;9.318;2023-04-24T04:30:00;6.90;;;1.20;;
1336;SDS011;662;48.814;9.318;2023-04-24T04:32:32;1.13;;;1.03;;
1336;SDS011;662;48.814;9.318;2023-04-24T04:34:59;1.40;;;1.00;;
1336;SDS011;662;48.814;9.318;2023-04-24T04:37:31;0.90;;;0.90;;
1336;SDS011;662;48.814;9.318;2023-04-24T04:40:00;2.80;;;1.10;;
1336;SDS011;662;48.814;9.318;2023-04-24T04:42:36;1.40;;;1.30;;
1336;SDS011;662;48.814;9.318;2023-04-24T04:45:05;1.30;;;1.20;;
1336;SDS011;662;48.814;9.318;2023-04-24T04:47:33;1.47;;;1.33;;
1336;SDS011;662;48.814;9.318;2023-04-24T04:50:00;1.80;;;1.27;;
1336;SDS011;662;48.814;9.318;2023-04-24T04:52:26;2.50;;;1.13;;
1336;SDS011;662;48.814;9.318;2023-04-24T04:54:52;2.10;;;1.13;;
1336;SDS011;662;48.814;9.318;2023-04-24T04:57:18;2.77;;;1.60;;
1336;SDS011;662;48.814;9.318;2023-04-24T04:59:43;1.90;;;1.30;;
1336;SDS011;662;48.814;9.318;2023-04-24T05:02:09;1.50;;;1.40;;
1336;SDS011;662;48.814;9.318;2023-04-24T05:04:35;1.50;;;1.40;;
1336;SDS011;662;48.814;9.318;2023-04-24T05:07:00;1.63;;;1.50;;
1336;SDS011;662;48.814;9.318;2023-04-24T05:09:26;3.27;;;1.27;;
1336;SDS011;662;48.814;9.318;2023-04-24T05:11:53;1.90;;;1.37;;
1336;SDS011;662;48.814;9.318;2023-04-24T05:14:19;1.30;;;1.20;;
1336;SDS011;662;48.814;9.318;2023-04-24T05:16:45;2.23;;;1.40;;
1336;SDS011;662;48.814;9.318;2023-04-24T05:19:11;1.73;;;1.60;;
1336;SDS011;662;48.814;9.318;2023-04-24T05:21:38;2.20;;;1.80;;
1336;SDS011;662;48.814;9.318;2023-04-24T05:24:05;1.40;;;1.30;;
1336;SDS011;662;48.814;9.318;2023-04-24T05:26:31;2.33;;;1.70;;
1336;SDS011;662;48.814;9.318;2023-04-24T05:28:57;1.50;;;1.20;;
1336;SDS011;662;48.814;9.318;2023-04-24T05:31:23;1.50;;;1.40;;
1336;SDS011;662;48.814;9.318;2023-04-24T05:33:49;3.00;;;1.70;;
1336;SDS011;662;48.814;9.318;2023-04-24T05:36:14;1.60;;;1.50;;
1336;SDS011;662;48.814;9.318;2023-04-24T05:38:40;1.40;;;1.30;;
1336;SDS011;662;48.814;9.318;2023-04-24T05:41:06;2.10;;;1.43;;
1336;SDS011;662;48.814;9.318;2023-04-24T05:43:31;1.50;;;1.20;;
1336;SDS011;662;48.814;9.318;2023-04-24T05:45:57;1.97;;;1.30;;
1336;SDS011;662;48.814;9.318;2023-04-24T05:48:23;1.57;;;1.40;;
1336;SDS011;662;48.814;9.318;2023-04-24T05:50:49;1.50;;;1.40;;
1336;SDS011;662;48.814;9.318;2023-04-24T05:53:14;1.80;;;1.70;;
1336;SDS011;662;48.814;9.318;2023-04-24T05:55:40;1.97;;;1.50;;
1336;SDS011;662;48.814;9.318;2023-04-24T05:58:06;1.50;;;1.40;;
1336;SDS011;662;48.814;9.318;2023-04-24T06:00:32;1.33;;;1.23;;
1336;SDS011;662;48.814;9.318;2023-04-24T06:02:59;1.67;;;1.50;;
1336;SDS011;662;48.814;9.318;2023-04-24T06:05:25;1.40;;;1.30;;
1336;SDS011;662;48.814;9.318;2023-04-24T06:07:51;6.33;;;2.03;;
1336;SDS011;662;48.814;9.318;2023-04-24T06:10:17;7.93;;;1.93;;
1336;SDS011;662;48.814;9.318;2023-04-24T06:12:42;1.80;;;1.67;;
1336;SDS011;662;48.814;9.318;2023-04-24T06:15:08;1.60;;;1.50;;
1336;SDS011;662;48.814;9.318;2023-04-24T06:17:34;1.97;;;1.87;;
1336;SDS011;662;48.814;9.318;2023-04-24T06:20:00;3.40;;;1.50;;
1336;SDS011;662;48.814;9.318;2023-04-24T06:22:25;1.80;;;1.70;;
1336;SDS011;662;48.814;9.318;2023-04-24T06:24:51;2.80;;;1.70;;
1336;SDS011;662;48.814;9.318;2023-04-24T06:27:17;1.77;;;1.63;;
1336;SDS011;662;48.814;9.318;2023-04-24T06:29:42;2.37;;;1.87;;
1336;SDS011;662;48.814;9.318;2023-04-24T06:32:08;2.47;;;2.20;;
1336;SDS011;662;48.814;9.318;2023-04-24T06:34:34;2.00;;;1.90;;
1336;SDS011;662;48.814;9.318;2023-04-24T06:37:00;5.60;;;2.07;;
1336;SDS011;662;48.814;9.318;2023-04-24T06:39:26;3.23;;;2.40;;
1336;SDS011;662;48.814;9.318;2023-04-24T06:41:51;3.50;;;2.10;;
1336;SDS011;662;48.814;9.318;2023-04-24T06:44:17;2.00;;;1.80;;
1336;SDS011;662;48.814;9.318;2023-04-24T06:46:43;3.07;;;2.10;;
1336;SDS011;662;48.814;9.318;2023-04-24T06:49:09;2.90;;;2.10;;
1336;SDS011;662;48.814;9.318;2023-04-24T06:51:34;1.97;;;1.83;;
1336;SDS011;662;48.814;9.318;2023-04-24T06:54:00;2.53;;;2.27;;
1336;SDS011;662;48.814;9.318;2023-04-24T06:56:26;3.07;;;2.40;;
1336;SDS011;662;48.814;9.318;2023-04-24T06:58:53;1.73;;;1.63;;
1336;SDS011;662;48.814;9.318;2023-04-24T07:01:19;2.20;;;2.00;;
1336;SDS011;662;48.814;9.318;2023-04-24T07:03:45;2.60;;;2.40;;
1336;SDS011;662;48.814;9.318;2023-04-24T07:06:10;2.57;;;2.00;;
1336;SDS011;662;48.814;9.318;2023-04-24T07:08:37;2.43;;;1.90;;
1336;SDS011;662;48.814;9.318;2023-04-24T07:11:03;2.30;;;2.13;;
1336;SDS011;662;48.814;9.318;2023-04-24T07:13:29;4.80;;;2.00;;
1336;SDS011;662;48.814;9.318;2023-04-24T07:15:54;2.30;;;2.10;;
1336;SDS011;662;48.814;9.318;2023-04-24T07:18:21;2.37;;;2.17;;
1336;SDS011;662;48.814;9.318;2023-04-24T07:20:47;3.83;;;2.10;;
1336;SDS011;662;48.814;9.318;2023-04-24T07:23:15;4.60;;;2.23;;
1336;SDS011;662;48.814;9.318;2023-04-24T07:25:41;2.23;;;2.03;;
1336;SDS011;662;48.814;9.318;2023-04-24T07:28:06;2.40;;;2.20;;
1336;SDS011;662;48.814;9.318;2023-04-24T07:30:32;2.77;;;1.90;;
1336;SDS011;662;48.814;9.318;2023-04-24T07:32:58;2.90;;;2.10;;
1336;SDS011;662;48.814;9.318;2023-04-24T07:35:24;3.97;;;2.40;;
1336;SDS011;662;48.814;9.318;2023-04-24T07:37:59;2.43;;;2.23;;
1336;SDS011;662;48.814;9.318;2023-04-24T07:40:25;3.13;;;2.10;;
1336;SDS011;662;48.814;9.318;2023-04-24T07:42:51;2.70;;;2.03;;
1336;SDS011;662;48.814;9.318;2023-04-24T07:45:16;2.27;;;1.87;;
1336;SDS011;662;48.814;9.318;2023-04-24T07:47:42;1.77;;;1.67;;
1336;SDS011;662;48.814;9.318;2023-04-24T07:50:11;4.03;;;2.00;;
1336;SDS011;662;48.814;9.318;2023-04-24T07:52:37;1.80;;;1.70;;
1336;SDS011;662;48.814;9.318;2023-04-24T07:55:03;2.23;;;2.07;;
1336;SDS011;662;48.814;9.318;2023-04-24T07:57:29;2.40;;;2.20;;
1336;SDS011;662;48.814;9.318;2023-04-24T07:59:55;1.50;;;1.40;;
1336;SDS011;662;48.814;9.318;2023-04-24T08:02:21;2.60;;;1.40;;
1336;SDS011;662;48.814;9.318;2023-04-24T08:04:52;1.87;;;1.30;;
1336;SDS011;662;48.814;9.318;2023-04-24T08:07:20;2.73;;;1.80;;
1336;SDS011;662;48.814;9.318;2023-04-24T08:09:46;2.10;;;1.90;;
1336;SDS011;662;48.814;9.318;2023-04-24T08:12:12;3.63;;;1.53;;
1336;SDS011;662;48.814;9.318;2023-04-24T08:14:37;3.80;;;1.80;;
1336;SDS011;662;48.814;9.318;2023-04-24T08:17:03;2.23;;;1.40;;
1336;SDS011;662;48.814;9.318;2023-04-24T08:19:29;1.70;;;1.53;;
1336;SDS011;662;48.814;9.318;2023-04-24T08:21:54;5.80;;;1.57;;
1336;SDS011;662;48.814;9.318;2023-04-24T08:24:20;2.00;;;1.53;;
1336;SDS011;662;48.814;9.318;2023-04-24T08:26:46;3.20;;;1.60;;
1336;SDS011;662;48.814;9.318;2023-04-24T08:29:15;1.67;;;1.57;;
1336;SDS011;662;48.814;9.318;2023-04-24T08:31:41;1.83;;;1.60;;
1336;SDS011;662;48.814;9.318;2023-04-24T08:34:07;1.60;;;1.50;;
1336;SDS011;662;48.814;9.318;2023-04-24T08:36:32;1.77;;;1.67;;
1336;SDS011;662;48.814;9.318;2023-04-24T08:38:58;2.30;;;1.67;;
1336;SDS011;662;48.814;9.318;2023-04-24T08:41:26;1.63;;;1.53;;
1336;SDS011;662;48.814;9.318;2023-04-24T08:43:52;1.83;;;1.73;;
1336;SDS011;662;48.814;9.318;2023-04-24T08:46:18;1.40;;;1.27;;
1336;SDS011;662;48.814;9.318;2023-04-24T08:48:45;2.23;;;1.90;;
1336;SDS011;662;48.814;9.318;2023-04-24T08:51:11;1.60;;;1.50;;
1336;SDS011;662;48.814;9.318;2023-04-24T08:53:36;1.57;;;1.30;;
1336;SDS011;662;48.814;9.318;2023-04-24T08:56:03;2.00;;;1.90;;
1336;SDS011;662;48.814;9.318;2023-04-24T08:58:29;2.53;;;2.00;;
1336;SDS011;662;48.814;9.318;2023-04-24T09:01:00;1.87;;;1.50;;
1336;SDS011;662;48.814;9.318;2023-04-24T09:03:27;3.33;;;1.70;;
1336;SDS011;662;48.814;9.318;2023-04-24T09:05:54;1.70;;;1.60;;
1336;SDS011;662;48.814;9.318;2023-04-24T09:08:23;1.90;;;1.57;;
1336;SDS011;662;48.814;9.318;2023-04-24T09:10:50;1.70;;;1.60;;
1336;SDS011;662;48.814;9.318;2023-04-24T09:13:16;1.73;;;1.63;;
1336;SDS011;662;48.814;9.318;2023-04-24T09:15:43;2.10;;;1.83;;
1336;SDS011;662;48.814;9.318;2023-04-24T09:18:09;3.13;;;1.80;;
1336;SDS011;662;48.814;9.318;2023-04-24T09:20:35;4.47;;;1.90;;
1336;SDS011;662;48.814;9.318;2023-04-24T09:23:26;2.50;;;1.83;;
1336;SDS011;662;48.814;9.318;2023-04-24T09:25:56;2.20;;;1.57;;
1336;SDS011;662;48.814;9.318;2023-04-24T09:28:25;4.13;;;1.87;;
1336;SDS011;662;48.814;9.318;2023-04-24T09:31:04;6.30;;;2.03;;
1336;SDS011;662;48.814;9.318;2023-04-24T09:33:30;2.30;;;2.10;;
1336;SDS011;662;48.814;9.318;2023-04-24T09:35:56;1.97;;;1.77;;
1336;SDS011;662;48.814;9.318;2023-04-24T09:38:32;2.50;;;1.50;;
1336;SDS011;662;48.814;9.318;2023-04-24T09:41:01;2.33;;;1.43;;
1336;SDS011;662;48.814;9.318;2023-04-24T09:43:28;1.90;;;1.27;;
1336;SDS011;662;48.814;9.318;2023-04-24T09:45:58;1.73;;;1.50;;
1336;SDS011;662;48.814;9.318;2023-04-24T09:48:32;1.93;;;1.47;;
1336;SDS011;662;48.814;9.318;2023-04-24T09:51:00;2.40;;;2.17;;
1336;SDS011;662;48.814;9.318;2023-04-24T09:53:28;2.30;;;1.80;;
1336;SDS011;662;48.814;9.318;2023-04-24T09:55:54;2.07;;;1.70;;
1336;SDS011;662;48.814;9.318;2023-04-24T09:58:26;2.40;;;2.20;;
1336;SDS011;662;48.814;9.318;2023-04-24T10:00:53;2.20;;;1.47;;
1336;SDS011;662;48.814;9.318;2023-04-24T10:03:20;2.03;;;1.63;;
1336;SDS011;662;48.814;9.318;2023-04-24T10:05:46;2.10;;;1.43;;
1336;SDS011;662;48.814;9.318;2023-04-24T10:08:12;5.63;;;1.43;;
1336;SDS011;662;48.814;9.318;2023-04-24T10:10:39;1.57;;;1.47;;
1336;SDS011;662;48.814;9.318;2023-04-24T10:13:09;1.50;;;1.40;;
1336;SDS011;662;48.814;9.318;2023-04-24T10:15:35;1.27;;;1.17;;
1336;SDS011;662;48.814;9.318;2023-04-24T10:18:02;2.23;;;1.83;;
1336;SDS011;662;48.814;9.318;2023-04-24T10:20:31;1.23;;;1.13;;
1336;SDS011;662;48.814;9.318;2023-04-24T10:22:57;4.60;;;1.60;;
1336;SDS011;662;48.814;9.318;2023-04-24T10:25:25;2.83;;;1.60;;
1336;SDS011;662;48.814;9.318;2023-04-24T10:27:52;1.83;;;1.40;;
1336;SDS011;662;48.814;9.318;2023-04-24T10:30:22;1.40;;;1.30;;
1336;SDS011;662;48.814;9.318;2023-04-24T10:32:48;2.30;;;1.27;;
1336;SDS011;662;48.814;9.318;2023-04-24T10:35:14;3.60;;;1.40;;
1336;SDS011;662;48.814;9.318;2023-04-24T10:40:16;2.97;;;1.40;;
1336;SDS011;662;48.814;9.318;2023-04-24T10:42:46;1.47;;;1.30;;
1336;SDS011;662;48.814;9.318;2023-04-24T10:45:16;1.30;;;1.20;;
1336;SDS011;662;48.814;9.318;2023-04-24T10:47:50;1.30;;;1.20;;
1336;SDS011;662;48.814;9.318;2023-04-24T10:50:17;2.00;;;1.50;;
1336;SDS011;662;48.814;9.318;2023-04-24T10:52:49;1.30;;;1.20;;
1336;SDS011;662;48.814;9.318;2023-04-24T10:55:16;1.50;;;1.40;;
1336;SDS011;662;48.814;9.318;2023-04-24T10:58:02;1.70;;;1.60;;
1336;SDS011;662;48.814;9.318;2023-04-24T11:00:29;1.93;;;1.83;;
1336;SDS011;662;48.814;9.318;2023-04-24T11:02:55;2.40;;;1.47;;
1336;SDS011;662;48.814;9.318;2023-04-24T11:05:22;2.23;;;2.00;;
1336;SDS011;662;48.814;9.318;2023-04-24T11:08:11;1.97;;;1.60;;
1336;SDS011;662;48.814;9.318;2023-04-24T11:10:45;2.53;;;1.77;;
1336;SDS011;662;48.814;9.318;2023-04-24T11:13:15;1.73;;;1.63;;
1336;SDS011;662;48.814;9.318;2023-04-24T11:15:42;2.37;;;1.50;;
1336;SDS011;662;48.814;9.318;2023-04-24T11:18:17;2.33;;;1.70;;
1336;SDS011;662;48.814;9.318;2023-04-24T11:20:43;1.80;;;1.67;;
1336;SDS011;662;48.814;9.318;2023-04-24T11:23:11;2.17;;;1.30;;
1336;SDS011;662;48.814;9.318;2023-04-24T11:25:38;2.50;;;1.47;;
1336;SDS011;662;48.814;9.318;2023-04-24T11:28:04;1.80;;;1.70;;
1336;SDS011;662;48.814;9.318;2023-04-24T11:30:31;1.60;;;1.50;;
1336;SDS011;662;48.814;9.318;2023-04-24T11:33:04;2.00;;;1.70;;
1336;SDS011;662;48.814;9.318;2023-04-24T11:35:34;1.60;;;1.50;;
1336;SDS011;662;48.814;9.318;2023-04-24T11:38:04;1.67;;;1.57;;
1336;SDS011;662;48.814;9.318;2023-04-24T11:40:30;1.80;;;1.70;;
1336;SDS011;662;48.814;9.318;2023-04-24T11:42:56;3.17;;;2.40;;
1336;SDS011;662;48.814;9.318;2023-04-24T11:45:25;2.20;;;1.87;;
1336;SDS011;662;48.814;9.318;2023-04-24T11:47:55;1.60;;;1.50;;
1336;SDS011;662;48.814;9.318;2023-04-24T11:50:21;1.63;;;1.53;;
1336;SDS011;662;48.814;9.318;2023-04-24T11:52:50;2.73;;;2.20;;
1336;SDS011;662;48.814;9.318;2023-04-24T11:57:43;1.47;;;1.37;;
1336;SDS011;662;48.814;9.318;2023-04-24T12:02:45;2.60;;;1.70;;
1336;SDS011;662;48.814;9.318;2023-04-24T12:05:23;1.60;;;1.50;;
1336;SDS011;662;48.814;9.318;2023-04-24T12:07:49;2.00;;;1.73;;
1336;SDS011;662;48.814;9.318;2023-04-24T12:10:19;2.70;;;2.00;;
1336;SDS011;662;48.814;9.318;2023-04-24T12:12:46;2.20;;;2.00;;
1336;SDS011;662;48.814;9.318;2023-04-24T12:15:12;3.37;;;1.30;;
1336;SDS011;662;48.814;9.318;2023-04-24T12:17:40;2.40;;;1.53;;
1336;SDS011;662;48.814;9.318;2023-04-24T12:20:07;2.83;;;1.60;;
1336;SDS011;662;48.814;9.318;2023-04-24T12:22:44;1.93;;;1.63;;
1336;SDS011;662;48.814;9.318;2023-04-24T12:25:13;2.13;;;1.70;;
1336;SDS011;662;48.814;9.318;2023-04-24T12:27:43;1.97;;;1.83;;
1336;SDS011;662;48.814;9.318;2023-04-24T12:30:17;2.93;;;1.50;;
1336;SDS011;662;48.814;9.318;2023-04-24T12:32:45;1.60;;;1.50;;
1336;SDS011;662;48.814;9.318;2023-04-24T12:35:18;1.47;;;1.37;;
1336;SDS011;662;48.814;9.318;2023-04-24T12:37:45;1.60;;;1.50;;
1336;SDS011;662;48.814;9.318;2023-04-24T12:40:12;1.50;;;1.40;;
1336;SDS011;662;48.814;9.318;2023-04-24T12:42:48;2.60;;;1.60;;
1336;SDS011;662;48.814;9.318;2023-04-24T12:45:15;3.40;;;1.60;;
1336;SDS011;662;48.814;9.318;2023-04-24T12:47:42;1.60;;;1.50;;
1336;SDS011;662;48.814;9.318;2023-04-24T12:50:09;1.80;;;1.70;;
1336;SDS011;662;48.814;9.318;2023-04-24T12:52:36;1.60;;;1.40;;
1336;SDS011;662;48.814;9.318;2023-04-24T12:55:02;1.70;;;1.60;;
1336;SDS011;662;48.814;9.318;2023-04-24T12:57:30;1.60;;;1.50;;
1336;SDS011;662;48.814;9.318;2023-04-24T12:59:56;1.83;;;1.67;;
1336;SDS011;662;48.814;9.318;2023-04-24T13:02:24;2.37;;;1.50;;
1336;SDS011;662;48.814;9.318;2023-04-24T13:04:51;2.77;;;1.90;;
1336;SDS011;662;48.814;9.318;2023-04-24T13:07:17;1.70;;;1.60;;
1336;SDS011;662;48.814;9.318;2023-04-24T13:09:43;3.43;;;1.87;;
1336;SDS011;662;48.814;9.318;2023-04-24T13:12:10;2.03;;;1.50;;
1336;SDS011;662;48.814;9.318;2023-04-24T13:14:36;2.20;;;1.90;;
1336;SDS011;662;48.814;9.318;2023-04-24T13:17:03;4.33;;;2.37;;
1336;SDS011;662;48.814;9.318;2023-04-24T13:19:29;6.77;;;2.07;;
1336;SDS011;662;48.814;9.318;2023-04-24T13:22:00;5.80;;;2.10;;
1336;SDS011;662;48.814;9.318;2023-04-24T13:24:26;2.13;;;2.00;;
1336;SDS011;662;48.814;9.318;2023-04-24T13:26:52;2.43;;;1.80;;
1336;SDS011;662;48.814;9.318;2023-04-24T13:29:18;1.70;;;1.60;;
1336;SDS011;662;48.814;9.318;2023-04-24T13:31:45;1.70;;;1.60;;
1336;SDS011;662;48.814;9.318;2023-04-24T13:34:12;1.87;;;1.70;;
1336;SDS011;662;48.814;9.318;2023-04-24T13:36:38;3.67;;;1.70;;
1336;SDS011;662;48.814;9.318;2023-04-24T13:39:04;1.87;;;1.77;;
1336;SDS011;662;48.814;9.318;2023-04-24T13:41:32;1.53;;;1.43;;
1336;SDS011;662;48.814;9.318;2023-04-24T13:43:58;2.00;;;1.80;;
1336;SDS011;662;48.814;9.318;2023-04-24T13:46:24;2.20;;;1.70;;
1336;SDS011;662;48.814;9.318;2023-04-24T13:48:49;2.07;;;1.70;;
1336;SDS011;662;48.814;9.318;2023-04-24T13:51:15;2.10;;;1.80;;
1336;SDS011;662;48.814;9.318;2023-04-24T13:53:41;3.37;;;2.10;;
1336;SDS011;662;48.814;9.318;2023-04-24T13:56:06;2.10;;;2.00;;
1336;SDS011;662;48.814;9.318;2023-04-24T13:58:32;2.27;;;2.07;;
1336;SDS011;662;48.814;9.318;2023-04-24T14:00:58;2.53;;;2.03;;
1336;SDS011;662;48.814;9.318;2023-04-24T14:03:24;1.87;;;1.77;;
1336;SDS011;662;48.814;9.318;2023-04-24T14:05:49;2.00;;;1.80;;
1336;SDS011;662;48.814;9.318;2023-04-24T14:08:15;2.50;;;2.30;;
1336;SDS011;662;48.814;9.318;2023-04-24T14:10:40;1.70;;;1.60;;
1336;SDS011;662;48.814;9.318;2023-04-24T14:13:07;1.87;;;1.77;;
1336;SDS011;662;48.814;9.318;2023-04-24T14:15:35;1.53;;;1.43;;
1336;SDS011;662;48.814;9.318;2023-04-24T14:18:01;1.20;;;1.20;;
1336;SDS011;662;48.814;9.318;2023-04-24T14:20:28;1.53;;;1.43;;
1336;SDS011;662;48.814;9.318;2023-04-24T14:22:53;1.60;;;1.50;;
1336;SDS011;662;48.814;9.318;2023-04-24T14:25:19;1.67;;;1.57;;
1336;SDS011;662;48.814;9.318;2023-04-24T14:27:45;1.77;;;1.67;;
1336;SDS011;662;48.814;9.318;2023-04-24T14:30:12;2.50;;;2.23;;
1336;SDS011;662;48.814;9.318;2023-04-24T14:32:38;1.97;;;1.87;;
1336;SDS011;662;48.814;9.318;2023-04-24T14:35:05;4.63;;;2.30;;
1336;SDS011;662;48.814;9.318;2023-04-24T14:37:31;2.00;;;1.90;;
1336;SDS011;662;48.814;9.318;2023-04-24T14:39:57;3.20;;;1.63;;
1336;SDS011;662;48.814;9.318;2023-04-24T14:42:23;1.60;;;1.50;;
1336;SDS011;662;48.814;9.318;2023-04-24T14:44:49;2.60;;;1.83;;
1336;SDS011;662;48.814;9.318;2023-04-24T14:47:15;1.70;;;1.60;;
1336;SDS011;662;48.814;9.318;2023-04-24T14:49:42;2.03;;;1.50;;
1336;SDS011;662;48.814;9.318;2023-04-24T14:52:08;1.87;;;1.60;;
1336;SDS011;662;48.814;9.318;2023-04-24T14:54:35;2.80;;;1.60;;
1336;SDS011;662;48.814;9.318;2023-04-24T14:57:00;1.50;;;1.40;;
1336;SDS011;662;48.814;9.318;2023-04-24T14:59:27;1.33;;;1.30;;
1336;SDS011;662;48.814;9.318;2023-04-24T15:01:53;2.53;;;1.60;;
1336;SDS011;662;48.814;9.318;2023-04-24T15:04:23;2.70;;;1.90;;
1336;SDS011;662;48.814;9.318;2023-04-24T15:06:51;2.00;;;1.80;;
1336;SDS011;662;48.814;9.318;2023-04-24T15:09:18;1.53;;;1.43;;
1336;SDS011;662;48.814;9.318;2023-04-24T15:11:44;3.80;;;1.60;;
1336;SDS011;662;48.814;9.318;2023-04-24T15:14:13;2.27;;;2.07;;
1336;SDS011;662;48.814;9.318;2023-04-24T15:16:39;1.90;;;1.70;;
1336;SDS011;662;48.814;9.318;2023-04-24T15:19:05;2.00;;;1.90;;
1336;SDS011;662;48.814;9.318;2023-04-24T15:21:31;2.10;;;1.90;;
1336;SDS011;662;48.814;9.318;2023-04-24T15:23:57;2.50;;;2.13;;
1336;SDS011;662;48.814;9.318;2023-04-24T15:26:23;2.40;;;2.20;;
1336;SDS011;662;48.814;9.318;2023-04-24T15:28:49;2.60;;;2.40;;
1336;SDS011;662;48.814;9.318;2023-04-24T15:31:16;5.33;;;2.07;;
1336;SDS011;662;48.814;9.318;2023-04-24T15:33:42;3.53;;;1.97;;
1336;SDS011;662;48.814;9.318;2023-04-24T15:36:08;1.90;;;1.77;;